Flight Information

DEPARTURE
CAMARILLO, CA
Elevation:
76
Runways:
8/26 - 6013x150 - ASPH-CONC-G
Active PE Departure:
26
Current PE ATIS:
W
Altimeter:
30.02
Remarks:
ATIS:
126.025 805-484-3351
Clearance Delivery:
121.8
Ground:
121.8
Tower:
128.2
DESTINATION
SANTA ANA, CA
Elevation:
55
TPA:
1055 (est.)
Runways:
2L/20R - 5700x150 - ASPH-G
2R/20L - 2886x75 - ASPH-G
Active PE Arriving:
20L - 20R
Active PE Approach:
ILS RUNWAY 2 0 RIGHT APPROACH IN USE.
Current PE ATIS:
F
Altimeter:
30.01
Remarks:
V F R DEPARTURES CONTACT CLEARANCE DELIVERY, ADVISE ON COURSE HEADING, ALTITUDE, AND IF FLIGHT FOLLOWING IS REQUESTED.
ATIS:
126 714-546-2279
Tower:
119.9 (Rwy 2R-20L) 126.8 (Rwy 2L-20R)
Ground:
120.8 (East) 132.25 (West)


69 NM118° True-14° Var103° HDG

Flight Plan:
(click to file on line)

1. Type
2. Aircraft Identification
3. Aircraft Type / Special Equipment
4. True Airspeed
kts
5. Departure Airport
(ICAO code)
6. Arriving Airport
(ICAO code)
7. Cruising Altitude
ft
8. Alternate Airport
(ICAO code)
9. Route of Flight
10. Remarks


00:00:00 Departure ATIS: Destination ATIS:

Clearance Limit:
Route:
Altitude: Expect in minutes
Frequency:
Transponder: (7500 Hijack / 7600 Lost Comms / 7700 Emergency)


KCMA 121555Z 09004KT 9SM OVC012 17/12 A3002 RMK AO2 SLP173 T01720122
Time: 2021-05-12T15:55:00Z
1620838644
Winds: 90 @ 4 kts
Visibility: 9.0 sm
Clouds (AGL): OVC 1200
Temperature: 17.2 C
Dew Point: 12.2 C
Pressure: 30.02067 in Hgbr

KSNA 121653Z 34004KT 6SM HZ BKN019 20/13 A3001 RMK AO2 SLP160 T02000128
Time: 2021-05-12T16:53:00Z
1620838645
Winds: 340 @ 4 kts
Visibility: 6.0 sm
Clouds (AGL): BKN 1900
Temperature: 20.0 C
Dew Point: 12.8 C
Pressure: 30.008858 in Hgbr


Notes:

Data extracted from FAA Digital Chart Supplement. Effective: 0901Z Thursday, APR 22, 2021 to 0901Z Thursday, JUN 17, 2021
Current ATIS data is provided courtisy of PilotEdge.